createdAt,value
2023-01-29T00:02:24.702Z,98105.67
2023-01-29T00:04:53.738Z,98107.31
2023-01-29T00:07:25.122Z,98110.50
2023-01-29T00:09:53.369Z,98115.86
2023-01-29T00:12:21.337Z,98115.26
2023-01-29T00:14:49.616Z,98115.23
2023-01-29T00:17:17.635Z,98115.88
2023-01-29T00:19:45.666Z,98122.45
2023-01-29T00:22:13.720Z,98126.34
2023-01-29T00:24:41.807Z,98122.31
2023-01-29T00:27:10.475Z,98120.67
2023-01-29T00:29:38.508Z,98122.77
2023-01-29T00:32:06.661Z,98124.42
2023-01-29T00:34:36.564Z,98119.77
2023-01-29T00:37:05.013Z,98125.05
2023-01-29T00:39:47.465Z,98120.01
2023-01-29T00:42:34.538Z,98119.39
2023-01-29T00:45:02.608Z,98116.20
2023-01-29T00:47:31.091Z,98118.94
2023-01-29T00:50:00.590Z,98124.04
2023-01-29T00:52:28.963Z,98122.59
2023-01-29T00:54:57.818Z,98124.26
2023-01-29T00:57:26.976Z,98127.10
2023-01-29T00:59:55.527Z,98128.30
2023-01-29T01:02:42.576Z,98130.52
2023-01-29T01:05:18.360Z,98129.10
2023-01-29T01:07:48.741Z,98130.80
2023-01-29T01:10:21.370Z,98129.83
2023-01-29T01:12:51.225Z,98127.65
2023-01-29T01:15:19.902Z,98127.64
2023-01-29T01:17:48.992Z,98125.84
2023-01-29T01:20:17.395Z,98120.77
2023-01-29T01:22:45.732Z,98121.30
2023-01-29T01:25:13.711Z,98122.82
2023-01-29T01:27:42.109Z,98123.58
2023-01-29T01:30:15.412Z,98121.29
2023-01-29T01:32:43.863Z,98118.11
2023-01-29T01:35:13.813Z,98115.36
2023-01-29T01:37:42.359Z,98111.39
2023-01-29T01:40:20.606Z,98109.52
2023-01-29T01:42:52.543Z,98112.13
2023-01-29T01:45:26.870Z,98112.71
2023-01-29T01:47:58.111Z,98110.02
2023-01-29T01:50:34.977Z,98111.11
2023-01-29T01:53:12.140Z,98114.61
2023-01-29T01:55:46.078Z,98117.11
2023-01-29T01:58:18.087Z,98120.62
2023-01-29T02:00:46.156Z,98119.65
2023-01-29T02:03:33.204Z,98115.77
2023-01-29T02:06:20.227Z,98115.41
2023-01-29T02:09:10.130Z,98120.75
2023-01-29T02:11:38.528Z,98124.93
2023-01-29T02:14:06.608Z,98123.65
2023-01-29T02:16:35.927Z,98121.98
2023-01-29T02:19:14.427Z,98122.06
2023-01-29T02:21:42.303Z,98119.30
2023-01-29T02:24:16.096Z,98122.35
2023-01-29T02:26:44.105Z,98123.00
2023-01-29T02:29:25.481Z,98119.60
2023-01-29T02:32:09.227Z,98122.05
2023-01-29T02:34:56.015Z,98129.98
2023-01-29T02:37:28.095Z,98129.48
2023-01-29T02:40:09.551Z,98132.10
2023-01-29T02:42:44.753Z,98130.52
2023-01-29T02:45:16.066Z,98135.02
2023-01-29T02:47:53.548Z,98139.42
2023-01-29T02:50:27.761Z,98140.23
2023-01-29T02:53:15.341Z,98141.96
2023-01-29T02:55:46.450Z,98147.15
2023-01-29T02:58:21.310Z,98150.48
2023-01-29T03:00:51.194Z,98158.55
2023-01-29T03:03:23.757Z,98162.55
2023-01-29T03:06:12.237Z,98164.84
2023-01-29T03:08:45.814Z,98169.98
2023-01-29T03:11:16.029Z,98164.00
2023-01-29T03:13:43.961Z,98161.73
2023-01-29T03:16:20.337Z,98167.39
2023-01-29T03:18:51.943Z,98176.45
2023-01-29T03:21:41.983Z,98179.39
2023-01-29T03:24:32.291Z,98178.13
2023-01-29T03:27:21.684Z,98179.27
2023-01-29T03:30:10.509Z,98181.50
2023-01-29T03:33:18.644Z,98180.65
2023-01-29T03:35:50.171Z,98179.77
2023-01-29T03:38:18.750Z,98178.45
2023-01-29T03:40:51.533Z,98181.05
2023-01-29T03:43:28.333Z,98187.66
2023-01-29T03:46:01.783Z,98187.96
2023-01-29T03:48:29.881Z,98187.83
2023-01-29T03:51:04.735Z,98184.59
2023-01-29T03:53:32.985Z,98190.16
2023-01-29T03:56:05.482Z,98187.39
2023-01-29T03:58:45.856Z,98188.88
2023-01-29T04:01:20.682Z,98188.73
2023-01-29T04:03:49.042Z,98188.30
2023-01-29T04:06:19.150Z,98190.06
2023-01-29T04:09:12.549Z,98197.06
2023-01-29T04:11:45.230Z,98196.74
2023-01-29T04:14:14.274Z,98202.24
2023-01-29T04:16:47.538Z,98200.33
2023-01-29T04:19:20.756Z,98195.70
2023-01-29T04:21:50.464Z,98187.73
2023-01-29T04:24:18.652Z,98193.55
2023-01-29T04:26:46.912Z,98193.52
2023-01-29T04:29:16.427Z,98186.39
2023-01-29T04:31:54.948Z,98184.04
2023-01-29T04:34:22.888Z,98183.34
2023-01-29T04:37:09.993Z,98181.83
2023-01-29T04:39:38.213Z,98180.70
2023-01-29T04:42:15.994Z,98180.96
2023-01-29T04:45:00.952Z,98183.46
2023-01-29T04:47:41.264Z,98188.50
2023-01-29T04:50:14.629Z,98192.13
2023-01-29T04:52:42.875Z,98197.91
2023-01-29T04:55:29.582Z,98204.21
2023-01-29T04:57:57.550Z,98207.84
2023-01-29T05:00:32.416Z,98205.36
2023-01-29T05:03:01.899Z,98207.66
2023-01-29T05:05:30.808Z,98210.63
2023-01-29T05:07:59.373Z,98219.50
2023-01-29T05:10:27.809Z,98224.58
2023-01-29T05:13:04.294Z,98225.27
2023-01-29T05:15:36.361Z,98228.63
2023-01-29T05:18:08.949Z,98229.55
2023-01-29T05:20:39.120Z,98231.27
2023-01-29T05:23:15.288Z,98228.45
2023-01-29T05:25:44.043Z,98228.58
2023-01-29T05:28:16.792Z,98234.36
2023-01-29T05:30:46.367Z,98236.39
2023-01-29T05:33:14.579Z,98240.02
2023-01-29T05:35:42.889Z,98239.19
2023-01-29T05:38:10.915Z,98243.02
2023-01-29T05:40:39.087Z,98242.58
2023-01-29T05:43:14.428Z,98243.99
2023-01-29T05:45:42.707Z,98244.89
2023-01-29T05:48:10.872Z,98249.98
2023-01-29T05:50:38.829Z,98253.09
2023-01-29T05:53:07.117Z,98248.04
2023-01-29T05:55:35.756Z,98246.90
2023-01-29T05:58:05.871Z,98251.19
2023-01-29T06:00:34.049Z,98257.15
2023-01-29T06:03:02.083Z,98263.38
2023-01-29T06:05:30.229Z,98266.71
2023-01-29T06:07:58.403Z,98262.52
2023-01-29T06:10:26.379Z,98269.34
2023-01-29T06:12:54.780Z,98276.98
2023-01-29T06:15:22.848Z,98273.17
2023-01-29T06:17:50.785Z,98276.64
2023-01-29T06:20:19.196Z,98280.70
2023-01-29T06:22:47.331Z,98281.86
2023-01-29T06:25:15.513Z,98287.03
2023-01-29T06:27:43.579Z,98281.73
2023-01-29T06:30:11.831Z,98284.85
2023-01-29T06:32:40.023Z,98284.48
2023-01-29T06:35:09.993Z,98281.13
2023-01-29T06:37:37.908Z,98280.28
2023-01-29T06:40:06.516Z,98279.95
2023-01-29T06:42:37.589Z,98285.64
2023-01-29T06:45:05.811Z,98284.81
2023-01-29T06:47:33.877Z,98285.51
2023-01-29T06:50:02.060Z,98285.66
2023-01-29T06:52:30.075Z,98285.64
2023-01-29T06:54:58.141Z,98294.16
2023-01-29T06:57:28.681Z,98294.48
2023-01-29T06:59:56.622Z,98295.36
2023-01-29T07:02:24.561Z,98291.66
2023-01-29T07:04:52.812Z,98285.69
2023-01-29T07:07:20.782Z,98283.64
2023-01-29T07:09:48.682Z,98289.20
2023-01-29T07:12:16.623Z,98289.48
2023-01-29T07:14:44.803Z,98284.88
2023-01-29T07:17:12.894Z,98282.92
2023-01-29T07:19:40.938Z,98277.47
2023-01-29T07:22:08.909Z,98275.98
2023-01-29T07:24:37.109Z,98274.23
2023-01-29T07:27:05.411Z,98271.48
2023-01-29T07:29:33.427Z,98272.73
2023-01-29T07:32:01.855Z,98281.50
2023-01-29T07:34:30.118Z,98285.23
2023-01-29T07:36:58.163Z,98285.02
2023-01-29T07:39:26.219Z,98288.70
2023-01-29T07:41:54.373Z,98291.56
2023-01-29T07:44:24.215Z,98290.55
2023-01-29T07:46:52.089Z,98295.83
2023-01-29T07:49:20.044Z,98296.16
2023-01-29T07:51:48.123Z,98297.53
2023-01-29T07:54:16.035Z,98298.88
2023-01-29T07:56:43.983Z,98294.08
2023-01-29T07:59:12.000Z,98285.15
2023-01-29T08:01:39.995Z,98287.75
2023-01-29T08:04:07.944Z,98293.54
2023-01-29T08:06:35.874Z,98290.54
2023-01-29T08:09:03.893Z,98290.95
2023-01-29T08:11:32.053Z,98292.23
2023-01-29T08:14:00.340Z,98296.09
2023-01-29T08:16:28.559Z,98295.27
2023-01-29T08:18:56.670Z,98299.17
2023-01-29T08:21:25.026Z,98302.38
2023-01-29T08:23:53.018Z,98303.70
2023-01-29T08:26:21.053Z,98311.16
2023-01-29T08:28:49.154Z,98315.71
2023-01-29T08:31:17.949Z,98316.12
2023-01-29T08:33:46.085Z,98311.91
2023-01-29T08:36:14.497Z,98313.16
2023-01-29T08:38:42.412Z,98312.00
2023-01-29T08:41:10.486Z,98311.72
2023-01-29T08:43:38.748Z,98313.70
2023-01-29T08:46:07.365Z,98307.55
2023-01-29T08:48:35.553Z,98309.21
2023-01-29T08:51:04.732Z,98315.92
2023-01-29T08:53:33.042Z,98320.30
2023-01-29T08:56:01.293Z,98321.23
2023-01-29T08:58:29.173Z,98319.39
2023-01-29T09:00:57.109Z,98317.15
2023-01-29T09:03:25.231Z,98322.39
2023-01-29T09:05:53.391Z,98325.71
2023-01-29T09:08:21.394Z,98325.67
2023-01-29T09:10:49.653Z,98324.42
2023-01-29T09:13:17.803Z,98321.80
2023-01-29T09:15:46.850Z,98319.25
2023-01-29T09:18:14.811Z,98322.04
2023-01-29T09:20:42.755Z,98323.80
2023-01-29T09:23:11.524Z,98325.20
2023-01-29T09:25:39.487Z,98322.46
2023-01-29T09:28:07.562Z,98316.69
2023-01-29T09:30:37.977Z,98321.22
2023-01-29T09:33:06.797Z,98319.17
2023-01-29T09:35:34.947Z,98316.55
2023-01-29T09:38:03.176Z,98317.77
2023-01-29T09:40:31.187Z,98313.16
2023-01-29T09:43:09.638Z,98306.83
2023-01-29T09:45:50.326Z,98303.26
2023-01-29T09:48:19.666Z,98297.20
2023-01-29T09:50:51.367Z,98290.95
2023-01-29T09:53:22.476Z,98286.20
2023-01-29T09:55:52.919Z,98280.50
2023-01-29T09:58:38.097Z,98282.48
2023-01-29T10:01:35.649Z,98285.05
2023-01-29T10:04:12.846Z,98280.92
2023-01-29T10:07:00.019Z,98281.71
2023-01-29T10:09:30.893Z,98284.05
2023-01-29T10:12:13.159Z,98277.93
2023-01-29T10:14:51.370Z,98279.18
2023-01-29T10:17:22.249Z,98277.88
2023-01-29T10:19:53.039Z,98278.26
2023-01-29T10:22:45.103Z,98274.23
2023-01-29T10:25:15.677Z,98275.89
2023-01-29T10:27:49.849Z,98281.41
2023-01-29T10:30:38.286Z,98282.95
2023-01-29T10:33:08.495Z,98287.39
2023-01-29T10:35:39.625Z,98286.13
2023-01-29T10:38:18.871Z,98282.37
2023-01-29T10:40:52.163Z,98283.77
2023-01-29T10:43:29.854Z,98286.48
2023-01-29T10:46:00.619Z,98284.49
2023-01-29T10:48:40.869Z,98284.95
2023-01-29T10:51:27.435Z,98287.40
2023-01-29T10:54:13.834Z,98283.80
2023-01-29T10:56:47.928Z,98284.56
2023-01-29T10:59:25.137Z,98284.89
2023-01-29T11:01:57.488Z,98287.33
2023-01-29T11:04:26.905Z,98295.95
2023-01-29T11:06:54.828Z,98295.32
2023-01-29T11:12:05.472Z,98286.58
2023-01-29T11:14:45.809Z,98282.61
2023-01-29T11:17:18.370Z,98280.67
2023-01-29T11:19:47.581Z,98284.57
2023-01-29T11:22:17.400Z,98283.46
2023-01-29T11:24:46.080Z,98286.73
2023-01-29T11:27:26.128Z,98283.17
2023-01-29T11:29:54.398Z,98280.92
2023-01-29T11:32:22.579Z,98276.44
2023-01-29T11:34:57.846Z,98274.30
2023-01-29T11:37:32.399Z,98275.19
2023-01-29T11:40:00.713Z,98272.83
2023-01-29T11:42:30.840Z,98270.59
2023-01-29T11:44:59.619Z,98270.75
2023-01-29T11:47:31.004Z,98264.41
2023-01-29T11:50:01.287Z,98263.55
2023-01-29T11:52:37.684Z,98265.78
2023-01-29T11:55:07.472Z,98265.95
2023-01-29T11:57:41.518Z,98263.23
2023-01-29T12:00:19.128Z,98264.36
2023-01-29T12:03:11.101Z,98261.92
2023-01-29T12:05:41.084Z,98257.58
2023-01-29T12:08:17.684Z,98258.04
2023-01-29T12:10:45.587Z,98257.77
2023-01-29T12:13:15.724Z,98257.19
2023-01-29T12:15:43.906Z,98259.47
2023-01-29T12:18:33.359Z,98259.70
2023-01-29T12:21:05.312Z,98261.09
2023-01-29T12:23:33.672Z,98254.20
2023-01-29T12:26:16.144Z,98254.29
2023-01-29T12:28:49.944Z,98253.69
2023-01-29T12:31:29.629Z,98255.06
2023-01-29T12:34:17.975Z,98259.61
2023-01-29T12:36:55.786Z,98255.83
2023-01-29T12:39:23.888Z,98257.68
2023-01-29T12:42:00.048Z,98257.70
2023-01-29T12:44:31.169Z,98256.65
2023-01-29T12:47:01.055Z,98254.69
2023-01-29T12:49:32.177Z,98255.01
2023-01-29T12:52:19.223Z,98257.66
2023-01-29T12:54:50.047Z,98257.22
2023-01-29T12:57:24.361Z,98255.45
2023-01-29T12:59:59.078Z,98255.55
2023-01-29T13:02:35.581Z,98253.33
2023-01-29T13:05:22.200Z,98256.42
2023-01-29T13:07:57.205Z,98252.52
2023-01-29T13:10:37.117Z,98251.05
2023-01-29T13:13:17.170Z,98255.74
2023-01-29T13:15:45.485Z,98257.58
2023-01-29T13:18:24.301Z,98258.62
2023-01-29T13:20:53.053Z,98254.02
2023-01-29T13:23:22.791Z,98252.50
2023-01-29T13:25:53.916Z,98254.06
2023-01-29T13:28:26.557Z,98254.11
2023-01-29T13:31:13.089Z,98257.73
2023-01-29T13:33:42.111Z,98258.14
2023-01-29T13:36:20.256Z,98257.20
2023-01-29T13:38:54.245Z,98260.45
2023-01-29T13:41:31.503Z,98258.20
2023-01-29T13:43:59.860Z,98259.87
2023-01-29T13:46:28.553Z,98262.48
2023-01-29T13:49:00.939Z,98262.97
2023-01-29T13:51:33.748Z,98262.58
2023-01-29T13:54:07.973Z,98262.36
2023-01-29T13:56:50.108Z,98262.45
2023-01-29T13:59:21.878Z,98262.93
2023-01-29T14:01:49.954Z,98264.95
2023-01-29T14:04:26.886Z,98266.06
2023-01-29T14:06:55.701Z,98264.54
2023-01-29T14:09:39.262Z,98265.09
2023-01-29T14:12:22.481Z,98262.13
2023-01-29T14:14:50.437Z,98263.09
2023-01-29T14:17:20.146Z,98258.86
2023-01-29T14:19:52.625Z,98255.98
2023-01-29T14:22:25.140Z,98261.91
2023-01-29T14:24:55.818Z,98264.44
2023-01-29T14:27:27.433Z,98265.94
2023-01-29T14:30:09.998Z,98270.03
2023-01-29T14:32:39.743Z,98268.92
2023-01-29T14:35:18.450Z,98270.09
2023-01-29T14:37:48.575Z,98271.15
2023-01-29T14:40:19.565Z,98275.91
2023-01-29T14:42:56.656Z,98278.30
2023-01-29T14:45:27.430Z,98275.03
2023-01-29T14:47:59.750Z,98281.65
2023-01-29T14:50:34.698Z,98279.26
2023-01-29T14:53:24.363Z,98277.80
2023-01-29T14:55:58.211Z,98274.98
2023-01-29T14:58:42.469Z,98274.79
2023-01-29T15:01:19.858Z,98281.73
2023-01-29T15:03:50.504Z,98281.13
2023-01-29T15:06:22.803Z,98288.29
2023-01-29T15:08:54.047Z,98289.38
2023-01-29T15:11:36.654Z,98290.30
2023-01-29T15:14:14.273Z,98293.84
2023-01-29T15:16:51.760Z,98294.29
2023-01-29T15:19:24.875Z,98295.23
2023-01-29T15:22:06.280Z,98299.20
2023-01-29T15:24:34.694Z,98294.13
2023-01-29T15:27:03.585Z,98294.61
2023-01-29T15:29:31.856Z,98295.75
2023-01-29T15:32:01.281Z,98295.36
2023-01-29T15:34:29.644Z,98291.86
2023-01-29T15:36:57.878Z,98290.05
2023-01-29T15:39:27.140Z,98287.23
2023-01-29T15:42:23.481Z,98284.90
2023-01-29T15:44:54.588Z,98287.02
2023-01-29T15:47:25.228Z,98290.31
2023-01-29T15:49:53.627Z,98295.70
2023-01-29T15:52:23.818Z,98294.98
2023-01-29T15:54:52.291Z,98293.98
2023-01-29T15:57:25.287Z,98293.60
2023-01-29T15:59:54.783Z,98292.11
2023-01-29T16:02:25.682Z,98294.79
2023-01-29T16:04:53.832Z,98294.41
2023-01-29T16:07:22.790Z,98299.80
2023-01-29T16:09:52.046Z,98297.70
2023-01-29T16:12:20.335Z,98294.08
2023-01-29T16:14:50.167Z,98290.90
2023-01-29T16:17:25.566Z,98290.70
2023-01-29T16:20:00.815Z,98288.33
2023-01-29T16:22:37.187Z,98281.81
2023-01-29T16:25:07.274Z,98276.05
2023-01-29T16:27:35.563Z,98274.44
2023-01-29T16:30:04.595Z,98276.50
2023-01-29T16:32:32.661Z,98281.95
2023-01-29T16:35:01.065Z,98282.59
2023-01-29T16:37:30.651Z,98283.55
2023-01-29T16:39:58.876Z,98285.48
2023-01-29T16:42:28.116Z,98281.88
2023-01-29T16:44:56.092Z,98284.05
2023-01-29T16:47:42.176Z,98286.59
2023-01-29T16:50:28.941Z,98290.25
2023-01-29T16:53:17.409Z,98295.51
2023-01-29T16:55:47.035Z,98302.27
2023-01-29T16:58:20.254Z,98301.38
2023-01-29T17:01:11.627Z,98305.42
2023-01-29T17:03:40.897Z,98301.42
2023-01-29T17:06:10.972Z,98295.96
2023-01-29T17:08:41.903Z,98299.65
2023-01-29T17:11:10.176Z,98295.84
2023-01-29T17:13:39.844Z,98300.54
2023-01-29T17:16:20.510Z,98297.13
2023-01-29T17:18:49.593Z,98296.58
2023-01-29T17:21:17.672Z,98300.14
2023-01-29T17:23:45.887Z,98299.63
2023-01-29T17:26:14.405Z,98298.31
2023-01-29T17:28:42.949Z,98297.39
2023-01-29T17:31:11.021Z,98300.23
2023-01-29T17:33:43.430Z,98295.27
2023-01-29T17:36:12.817Z,98294.36
2023-01-29T17:38:41.582Z,98293.38
2023-01-29T17:41:14.324Z,98291.94
2023-01-29T17:43:44.204Z,98293.51
2023-01-29T17:46:14.132Z,98295.52
2023-01-29T17:48:42.362Z,98295.83
2023-01-29T17:51:14.722Z,98293.11
2023-01-29T17:53:46.021Z,98297.91
2023-01-29T17:56:18.840Z,98298.13
2023-01-29T17:58:46.833Z,98296.83
2023-01-29T18:01:14.779Z,98300.98
2023-01-29T18:03:43.045Z,98302.75
2023-01-29T18:06:16.922Z,98306.10
2023-01-29T18:08:45.443Z,98306.58
2023-01-29T18:11:13.524Z,98310.38
2023-01-29T18:13:42.099Z,98312.06
2023-01-29T18:16:10.148Z,98308.70
2023-01-29T18:18:38.167Z,98309.86
2023-01-29T18:21:08.071Z,98308.65
2023-01-29T18:23:36.191Z,98308.00
2023-01-29T18:26:04.265Z,98308.27
2023-01-29T18:28:32.544Z,98310.95
2023-01-29T18:31:04.924Z,98316.55
2023-01-29T18:33:34.403Z,98320.75
2023-01-29T18:36:05.094Z,98318.45
2023-01-29T18:38:35.821Z,98321.39
2023-01-29T18:41:05.228Z,98324.02
2023-01-29T18:43:33.222Z,98326.84
2023-01-29T18:46:01.331Z,98327.09
2023-01-29T18:48:30.472Z,98323.80
2023-01-29T18:50:58.658Z,98323.78
2023-01-29T18:53:27.040Z,98322.34
2023-01-29T18:55:58.032Z,98321.69
2023-01-29T18:58:34.973Z,98322.70
2023-01-29T19:01:09.547Z,98322.04
2023-01-29T19:03:38.839Z,98320.92
2023-01-29T19:06:09.056Z,98323.33
2023-01-29T19:08:37.192Z,98320.78
2023-01-29T19:11:08.293Z,98317.63
2023-01-29T19:13:37.052Z,98313.55
2023-01-29T19:16:12.654Z,98312.71
2023-01-29T19:18:40.693Z,98314.06
2023-01-29T19:21:10.200Z,98318.45
2023-01-29T19:23:38.263Z,98324.65
2023-01-29T19:26:07.056Z,98327.23
2023-01-29T19:28:35.441Z,98327.25
2023-01-29T19:31:06.614Z,98329.23
2023-01-29T19:33:34.918Z,98332.04
2023-01-29T19:36:02.908Z,98328.30
2023-01-29T19:38:33.529Z,98332.10
2023-01-29T19:41:01.687Z,98330.69
2023-01-29T19:43:30.829Z,98330.40
2023-01-29T19:45:59.811Z,98330.20
2023-01-29T19:48:28.185Z,98331.83
2023-01-29T19:50:57.565Z,98334.30
2023-01-29T19:53:25.948Z,98336.27
2023-01-29T19:56:00.993Z,98337.38
2023-01-29T19:58:29.024Z,98336.59
2023-01-29T20:00:58.123Z,98335.83
2023-01-29T20:03:26.834Z,98334.92
2023-01-29T20:05:55.411Z,98332.82
2023-01-29T20:08:24.092Z,98330.93
2023-01-29T20:10:52.269Z,98334.19
2023-01-29T20:13:20.197Z,98332.52
2023-01-29T20:15:49.076Z,98326.16
2023-01-29T20:18:17.853Z,98327.54
2023-01-29T20:20:46.823Z,98326.38
2023-01-29T20:23:22.326Z,98325.45
2023-01-29T20:25:59.042Z,98327.30
2023-01-29T20:28:27.159Z,98322.95
2023-01-29T20:30:56.548Z,98323.13
2023-01-29T20:33:25.417Z,98325.70
2023-01-29T20:35:57.375Z,98323.96
2023-01-29T20:38:30.251Z,98326.38
2023-01-29T20:41:04.439Z,98325.20
2023-01-29T20:43:32.927Z,98325.42
2023-01-29T20:46:01.454Z,98327.50
2023-01-29T20:48:30.096Z,98331.43
2023-01-29T20:51:03.139Z,98325.41
2023-01-29T20:53:31.145Z,98330.25
2023-01-29T20:55:59.195Z,98332.95
2023-01-29T20:58:27.316Z,98326.98
2023-01-29T21:00:55.309Z,98318.69
2023-01-29T21:03:23.260Z,98315.40
2023-01-29T21:05:51.892Z,98312.75
2023-01-29T21:08:20.479Z,98309.66
2023-01-29T21:10:49.330Z,98310.90
2023-01-29T21:13:17.557Z,98310.98
2023-01-29T21:15:45.819Z,98308.25
2023-01-29T21:18:13.735Z,98306.92
2023-01-29T21:20:41.628Z,98309.75
2023-01-29T21:23:09.667Z,98310.28
2023-01-29T21:25:38.824Z,98307.08
2023-01-29T21:28:07.082Z,98305.36
2023-01-29T21:30:35.105Z,98304.11
2023-01-29T21:33:04.104Z,98307.54
2023-01-29T21:35:32.296Z,98310.23
2023-01-29T21:38:00.391Z,98318.11
2023-01-29T21:40:30.530Z,98320.63
2023-01-29T21:43:13.719Z,98324.91
2023-01-29T21:45:42.373Z,98323.86
2023-01-29T21:48:11.335Z,98320.41
2023-01-29T21:50:39.300Z,98319.91
2023-01-29T21:53:07.582Z,98321.30
2023-01-29T21:55:35.750Z,98322.48
2023-01-29T21:58:04.460Z,98319.98
2023-01-29T22:00:32.993Z,98319.42
2023-01-29T22:03:01.031Z,98314.46
2023-01-29T22:05:32.028Z,98318.67
2023-01-29T22:08:00.114Z,98322.63
2023-01-29T22:10:29.061Z,98316.72
2023-01-29T22:12:59.381Z,98310.73
2023-01-29T22:15:27.369Z,98299.34
2023-01-29T22:17:55.521Z,98297.59
2023-01-29T22:20:30.117Z,98295.80
2023-01-29T22:23:00.698Z,98290.48
2023-01-29T22:25:28.851Z,98285.02
2023-01-29T22:27:56.895Z,98283.58
2023-01-29T22:30:25.426Z,98281.45
2023-01-29T22:32:53.513Z,98285.65
2023-01-29T22:35:21.536Z,98282.73
2023-01-29T22:37:49.482Z,98280.20
2023-01-29T22:40:18.051Z,98280.30
2023-01-29T22:42:46.231Z,98279.09
2023-01-29T22:45:14.444Z,98277.64
2023-01-29T22:47:42.636Z,98273.19
2023-01-29T22:50:11.298Z,98268.48
2023-01-29T22:52:39.564Z,98267.11
2023-01-29T22:55:09.144Z,98270.10
2023-01-29T22:57:37.665Z,98273.77
2023-01-29T23:00:07.988Z,98270.09
2023-01-29T23:02:35.953Z,98275.19
2023-01-29T23:05:04.420Z,98276.20
2023-01-29T23:07:32.442Z,98278.12
2023-01-29T23:10:00.636Z,98280.59
2023-01-29T23:12:29.254Z,98285.21
2023-01-29T23:14:57.349Z,98288.98
2023-01-29T23:17:25.393Z,98286.92
2023-01-29T23:19:53.549Z,98285.46
2023-01-29T23:22:21.631Z,98281.61
2023-01-29T23:24:49.715Z,98280.67
2023-01-29T23:27:17.672Z,98282.01
2023-01-29T23:29:46.802Z,98285.32
2023-01-29T23:32:19.540Z,98284.40
2023-01-29T23:34:47.615Z,98287.05
2023-01-29T23:37:15.582Z,98287.98
2023-01-29T23:39:43.547Z,98284.80
2023-01-29T23:42:11.508Z,98285.94
2023-01-29T23:44:40.533Z,98283.98
2023-01-29T23:47:09.301Z,98279.27
2023-01-29T23:49:37.639Z,98277.80
2023-01-29T23:52:05.751Z,98278.58
2023-01-29T23:54:33.821Z,98274.48
2023-01-29T23:57:01.761Z,98267.55
2023-01-29T23:59:29.804Z,98260.13
